Archival Weather

Tokyo Intl

Tokyo, Japan (RJTT)

Report from: Tuesday, November 21, 2023 5:00 PM JST
Current time: Saturday, March 2, 2024 7:05 PM JST

Current weather – Weather history – Daily summaries
Weather forecast

Temperature16.0°C (60.8°F)
Dew point9.0°C (48.2°F)
Winds 7 kts (3.6 m/s, 8.1 mph) South-Southeast (160°)
Visibility6.2 mi. (10 km)
Clouds Few clouds 4,500 ft. (1,372 m)
Altimeter30.12 in.Hg (1020 mB)
Relative humidity63 %
Density altitude54 ft. (17 m)
Remarks No significant changes expected in the next two hours
Flight conditions Visual Meteorological Conditions
Raw dataRJTT 210800Z 16007KT 9999 FEW045 16/09 Q1020 NOSIG
An error has occurred. This application may no longer respond until reloaded. Reload 🗙